Time;durP1;ratioP1;P1;durP2;ratioP2;P2;SDS_P1;SDS_P2;PMS_P1;PMS_P2;Temp;Humidity;BMP_temperature;BMP_pressure;BME280_temperature;BME280_humidity;BME280_pressure;Samples;Min_cycle;Max_cycle;Signal;HPM_P1;HPM_P2
2023/03/25 00:01:40;;;;;;;0.00;0.00;;;;;;;;;;5069454;28;20246;-76
2023/03/25 00:04:07;;;;;;;0.05;0.05;;;;;;;;;;5084537;28;20036;-76
2023/03/25 00:06:33;;;;;;;3.45;3.30;;;9.70;99.90;;;;;;5071979;28;20044;-76
2023/03/25 00:08:59;;;;;;;1.75;1.75;;;9.60;99.90;;;;;;5071491;28;20517;-77
2023/03/25 00:11:26;;;;;;;0.00;0.00;;;9.70;99.90;;;;;;5069429;28;20025;-77
2023/03/25 00:13:52;;;;;;;0.52;0.52;;;9.70;99.90;;;;;;5071306;28;20517;-76
2023/03/25 00:16:20;;;;;;;0.00;0.00;;;9.60;99.90;;;;;;5069848;28;20421;-77
2023/03/25 00:18:46;;;;;;;0.00;0.00;;;9.70;99.90;;;;;;5073416;28;20025;-76
2023/03/25 00:21:13;;;;;;;0.00;0.00;;;9.70;99.90;;;;;;5070854;28;20025;-77
2023/03/25 00:23:47;;;;;;;0.00;0.00;;;9.60;99.90;;;;;;5072257;28;20046;-77
2023/03/25 00:26:20;;;;;;;0.00;0.00;;;9.70;99.90;;;;;;5073886;28;20076;-76
2023/03/25 00:28:49;;;;;;;0.00;0.00;;;9.60;99.90;;;;;;5069389;28;20080;-77
2023/03/25 00:31:15;;;;;;;0.50;0.50;;;;;;;;;;5065677;28;20324;-77
2023/03/25 00:33:41;;;;;;;0.10;0.10;;;9.70;99.90;;;;;;5062298;28;20085;-77
2023/03/25 00:36:07;;;;;;;0.00;0.00;;;9.70;99.90;;;;;;5062597;28;20104;-77
2023/03/25 00:38:34;;;;;;;0.00;0.00;;;9.60;99.90;;;;;;5064947;28;20601;-77
2023/03/25 00:41:16;;;;;;;0.00;0.00;;;9.70;99.90;;;;;;5065617;28;20013;-76
2023/03/25 00:43:43;;;;;;;0.00;0.00;;;9.70;99.90;;;;;;5067391;28;20548;-77
2023/03/25 00:46:10;;;;;;;0.03;0.03;;;9.70;99.90;;;;;;5062396;28;20045;-77
2023/03/25 00:48:37;;;;;;;0.00;0.00;;;9.60;99.90;;;;;;5066294;28;20531;-76
2023/03/25 00:51:08;;;;;;;10.75;10.00;;;9.70;99.90;;;;;;5064674;28;20020;-77
2023/03/25 00:53:35;;;;;;;0.10;0.10;;;10.60;99.90;;;;;;5068098;28;20025;-77
2023/03/25 00:56:02;;;;;;;0.00;0.00;;;9.60;99.90;;;;;;5066035;28;20112;-77
2023/03/25 00:58:30;;;;;;;0.10;0.10;;;9.60;99.90;;;;;;5065598;28;20280;-76
2023/03/25 01:00:57;;;;;;;0.00;0.00;;;9.60;99.90;;;;;;5061968;28;20035;-77
2023/03/25 01:03:24;;;;;;;1.08;1.08;;;9.60;99.90;;;;;;5065735;28;20040;-76
2023/03/25 01:05:55;;;;;;;0.00;0.00;;;9.60;99.90;;;;;;5063444;28;20021;-77
2023/03/25 01:08:28;;;;;;;0.00;0.00;;;9.70;99.90;;;;;;5069375;28;20040;-77
2023/03/25 01:10:54;;;;;;;0.00;0.00;;;;;;;;;;5068631;28;20039;-76
2023/03/25 01:13:21;;;;;;;0.00;0.00;;;9.70;99.90;;;;;;5070317;28;20376;-78
2023/03/25 01:15:47;;;;;;;0.00;0.00;;;9.70;99.90;;;;;;5070087;28;20025;-77
2023/03/25 01:18:18;;;;;;;0.00;0.00;;;9.60;99.90;;;;;;5073442;28;20111;-76
2023/03/25 01:20:44;;;;;;;3.05;2.92;;;9.90;99.90;;;;;;5076031;28;20021;-77
2023/03/25 01:23:11;;;;;;;0.00;0.00;;;9.50;99.90;;;;;;5067486;28;20521;-77
2023/03/25 01:25:38;;;;;;;8.32;7.22;;;9.50;99.90;;;;;;5066217;28;20021;-77
2023/03/25 01:28:05;;;;;;;0.00;0.00;;;7.00;99.90;;;;;;5061045;28;20039;-77
2023/03/25 01:30:31;;;;;;;0.00;0.00;;;9.50;99.90;;;;;;5064301;28;20038;-76
2023/03/25 01:32:57;;;;;;;0.00;0.00;;;9.50;99.90;;;;;;5061679;28;20445;-77
2023/03/25 01:35:24;;;;;;;0.10;0.10;;;9.50;99.90;;;;;;5061455;28;20031;-76
2023/03/25 01:37:53;;;;;;;0.00;0.00;;;9.50;99.90;;;;;;5062067;28;20080;-77
2023/03/25 01:40:22;;;;;;;0.00;0.00;;;9.40;99.90;;;;;;5060716;28;20541;-76
2023/03/25 01:42:48;;;;;;;0.30;0.30;;;9.40;99.90;;;;;;5059911;28;20075;-76
2023/03/25 01:45:27;;;;;;;0.00;0.00;;;10.00;99.90;;;;;;5060709;28;20041;-77
2023/03/25 01:48:26;;;;;;;0.00;0.00;;;9.50;99.90;;;;;;5062102;28;20031;-75
2023/03/25 01:50:57;;;;;;;0.08;0.08;;;9.50;99.90;;;;;;5059896;28;20123;-76
2023/03/25 01:53:26;;;;;;;0.00;0.00;;;10.50;99.90;;;;;;5061868;28;20017;-77
2023/03/25 01:55:53;;;;;;;0.70;0.70;;;;;;;;;;5062307;28;20021;-76
2023/03/25 01:58:21;;;;;;;0.00;0.00;;;9.50;99.90;;;;;;5062428;28;20016;-76
2023/03/25 02:00:49;;;;;;;6.68;6.38;;;9.50;99.90;;;;;;5060939;28;20462;-76
2023/03/25 02:03:19;;;;;;;0.00;0.00;;;9.60;99.90;;;;;;5061586;28;20201;-77
2023/03/25 02:06:07;;;;;;;0.00;0.00;;;9.60;99.90;;;;;;5060415;28;20020;-77
2023/03/25 02:08:38;;;;;;;0.00;0.00;;;9.60;99.90;;;;;;5061805;28;20054;-76
2023/03/25 02:11:07;;;;;;;0.00;0.00;;;9.60;99.90;;;;;;5062974;28;20025;-76
2023/03/25 02:13:35;;;;;;;0.35;0.35;;;9.60;99.90;;;;;;5060801;28;20028;-76
2023/03/25 02:16:07;;;;;;;0.00;0.00;;;9.90;99.90;;;;;;5059922;28;20048;-76
2023/03/25 02:18:57;;;;;;;0.00;0.00;;;9.60;99.90;;;;;;5060195;28;20024;-76
2023/03/25 02:21:49;;;;;;;8.18;7.43;;;9.60;99.90;;;;;;5060957;28;20107;-76
2023/03/25 02:24:42;;;;;;;0.00;0.00;;;9.60;99.90;;;;;;4987951;28;20030;-76
2023/03/25 02:27:45;;;;;;;0.00;0.00;;;9.50;99.90;;;;;;4983649;28;20124;-77
2023/03/25 02:30:37;;;;;;;0.00;0.00;;;9.50;99.90;;;;;;4997793;28;20486;-76
2023/03/25 02:33:35;;;;;;;0.00;0.00;;;9.50;99.90;;;;;;4980773;28;20085;-76
2023/03/25 02:36:12;;;;;;;0.00;0.00;;;9.50;99.90;;;;;;4997652;28;20183;-77
2023/03/25 02:38:39;;;;;;;0.65;0.65;;;9.50;99.90;;;;;;4997676;28;20030;-77
2023/03/25 02:41:10;;;;;;;0.00;0.00;;;9.50;99.90;;;;;;4998315;28;20041;-77
2023/03/25 02:43:53;;;;;;;0.08;0.08;;;9.50;99.90;;;;;;5002055;28;20073;-76
2023/03/25 02:46:19;;;;;;;0.00;0.00;;;9.60;99.90;;;;;;5001808;28;20392;-76
2023/03/25 02:48:56;;;;;;;3.45;3.30;;;9.60;99.90;;;;;;4986430;28;20052;-77
2023/03/25 02:51:31;;;;;;;0.20;0.20;;;9.60;99.90;;;;;;5004787;28;20061;-77
2023/03/25 02:54:03;;;;;;;0.00;0.00;;;9.60;99.90;;;;;;5007950;28;20038;-76
2023/03/25 02:56:31;;;;;;;1.45;1.45;;;9.60;99.90;;;;;;5009125;28;20022;-76
2023/03/25 02:59:01;;;;;;;0.00;0.00;;;9.50;99.90;;;;;;5008910;28;20531;-77
2023/03/25 03:01:27;;;;;;;0.00;0.00;;;;;;;;;;5043579;28;20049;-76
2023/03/25 03:03:58;;;;;;;0.35;0.35;;;9.50;99.90;;;;;;5068735;28;20055;-76
2023/03/25 03:06:26;;;;;;;0.00;0.00;;;9.60;99.90;;;;;;5067474;28;20549;-76
2023/03/25 03:09:07;;;;;;;0.10;0.10;;;9.50;99.90;;;;;;5065700;28;20531;-77
2023/03/25 03:12:15;;;;;;;0.00;0.00;;;9.60;99.90;;;;;;5064626;28;20035;-76
2023/03/25 03:15:10;;;;;;;0.35;0.35;;;9.50;99.90;;;;;;5002780;28;20048;-77
2023/03/25 03:17:54;;;;;;;0.00;0.00;;;9.60;99.90;;;;;;5002414;28;20049;-77
2023/03/25 03:20:31;;;;;;;0.00;0.00;;;9.60;99.90;;;;;;5001707;28;20064;-76
2023/03/25 03:23:23;;;;;;;0.00;0.00;;;9.60;99.90;;;;;;4984356;28;20030;-77
2023/03/25 03:26:16;;;;;;;0.00;0.00;;;9.60;99.90;;;;;;4984324;28;20034;-77
2023/03/25 03:28:59;;;;;;;0.00;0.00;;;9.60;99.90;;;;;;5001120;28;20744;-76
2023/03/25 03:31:38;;;;;;;0.00;0.00;;;9.60;99.90;;;;;;4991473;28;20710;-76
2023/03/25 03:34:14;;;;;;;0.05;0.05;;;9.60;99.90;;;;;;5001241;28;20080;-76
2023/03/25 03:36:51;;;;;;;1.73;1.65;;;9.60;99.90;;;;;;5001214;28;20619;-77
2023/03/25 03:39:40;;;;;;;0.00;0.00;;;9.60;99.90;;;;;;5001993;28;20485;-76
2023/03/25 03:42:21;;;;;;;0.00;0.00;;;9.70;99.90;;;;;;5001896;28;20054;-77
2023/03/25 03:44:53;;;;;;;3.35;3.25;;;9.70;99.90;;;;;;5002214;28;20535;-76
2023/03/25 03:47:27;;;;;;;0.00;0.00;;;9.70;99.90;;;;;;5000516;28;20029;-76
2023/03/25 03:49:58;;;;;;;0.00;0.00;;;9.60;99.90;;;;;;5000458;28;20037;-76
2023/03/25 03:52:36;;;;;;;0.10;0.10;;;9.60;99.90;;;;;;5063281;28;20477;-76
2023/03/25 03:55:17;;;;;;;0.00;0.00;;;9.70;99.90;;;;;;5064112;28;20032;-76
2023/03/25 03:58:00;;;;;;;0.00;0.00;;;9.70;99.90;;;;;;5063371;28;20021;-77
2023/03/25 04:00:33;;;;;;;0.00;0.00;;;9.70;99.90;;;;;;5062508;28;20028;-77
2023/03/25 04:03:09;;;;;;;0.10;0.10;;;9.70;99.90;;;;;;5064073;28;20519;-76
2023/03/25 04:05:37;;;;;;;0.10;0.10;;;9.70;99.90;;;;;;5066708;28;20013;-77
2023/03/25 04:08:31;;;;;;;0.00;0.00;;;9.80;99.90;;;;;;5065999;28;20032;-77
2023/03/25 04:11:03;;;;;;;0.00;0.00;;;9.70;99.90;;;;;;5063147;28;20031;-77
2023/03/25 04:13:35;;;;;;;0.00;0.00;;;9.70;99.90;;;;;;5062561;28;20025;-77
2023/03/25 04:16:02;;;;;;;0.00;0.00;;;9.70;99.90;;;;;;5061330;28;20116;-76
2023/03/25 04:18:28;;;;;;;0.00;0.00;;;9.70;99.90;;;;;;5064061;28;20379;-77
2023/03/25 04:20:54;;;;;;;0.10;0.10;;;9.70;99.90;;;;;;5061578;28;20024;-76
2023/03/25 04:23:21;;;;;;;0.00;0.00;;;9.80;99.90;;;;;;5062892;28;20141;-77
2023/03/25 04:25:57;;;;;;;0.10;0.10;;;9.70;99.90;;;;;;5062701;28;20020;-76
2023/03/25 04:28:24;;;;;;;0.00;0.00;;;9.70;99.90;;;;;;5078316;28;20040;-77
2023/03/25 04:30:54;;;;;;;0.00;0.00;;;9.80;99.90;;;;;;5061878;28;20107;-76
2023/03/25 04:33:24;;;;;;;4.93;4.68;;;9.80;99.90;;;;;;5078607;28;20144;-77
2023/03/25 04:35:50;;;;;;;0.00;0.00;;;9.80;99.90;;;;;;5063301;28;20017;-77
2023/03/25 04:38:19;;;;;;;0.10;0.10;;;9.70;99.90;;;;;;5061290;28;20071;-76
2023/03/25 04:40:47;;;;;;;0.00;0.00;;;9.70;99.90;;;;;;5062411;28;20407;-76
2023/03/25 04:43:15;;;;;;;0.13;0.13;;;9.70;99.90;;;;;;5062595;28;20017;-77
2023/03/25 04:45:47;;;;;;;0.00;0.00;;;9.30;99.90;;;;;;5062651;28;20095;-76
2023/03/25 04:48:23;;;;;;;0.00;0.00;;;9.80;99.90;;;;;;5063032;28;20054;-76
2023/03/25 04:50:50;;;;;;;0.00;0.00;;;9.80;99.90;;;;;;5062598;28;20017;-76
2023/03/25 04:53:17;;;;;;;0.00;0.00;;;9.70;99.90;;;;;;5062077;28;20039;-76
2023/03/25 04:55:46;;;;;;;0.00;0.00;;;9.70;99.90;;;;;;5061858;28;20013;-77
2023/03/25 04:58:14;;;;;;;0.00;0.00;;;9.70;99.90;;;;;;5062180;28;20309;-76
2023/03/25 05:00:41;;;;;;;0.08;0.08;;;9.80;99.90;;;;;;5063359;28;20382;-78
2023/03/25 05:03:08;;;;;;;0.00;0.00;;;9.80;99.90;;;;;;5061310;28;20071;-77
2023/03/25 05:05:34;;;;;;;0.08;0.08;;;9.80;99.90;;;;;;5062096;28;20092;-77
2023/03/25 05:08:00;;;;;;;0.00;0.00;;;9.80;99.90;;;;;;5061086;28;20032;-76
2023/03/25 05:10:29;;;;;;;0.10;0.10;;;9.80;99.90;;;;;;5060981;28;20035;-75
2023/03/25 05:13:01;;;;;;;0.20;0.20;;;9.90;99.90;;;;;;5062362;28;20020;-77
2023/03/25 05:15:29;;;;;;;0.20;0.20;;;9.80;99.90;;;;;;5060564;28;20048;-79
2023/03/25 05:17:55;;;;;;;0.00;0.00;;;9.90;99.90;;;;;;5075330;28;20233;-77
2023/03/25 05:20:22;;;;;;;0.00;0.00;;;9.90;99.90;;;;;;5063594;28;20092;-77
2023/03/25 05:22:52;;;;;;;0.00;0.00;;;9.90;99.90;;;;;;5064693;28;20020;-76
2023/03/25 05:25:20;;;;;;;0.00;0.00;;;9.90;99.90;;;;;;5064012;28;20027;-77
2023/03/25 05:27:47;;;;;;;0.08;0.08;;;10.00;99.90;;;;;;5064359;28;20503;-78
2023/03/25 05:30:14;;;;;;;0.00;0.00;;;9.90;99.90;;;;;;5062875;28;20415;-76
2023/03/25 05:32:44;;;;;;;0.03;0.03;;;10.00;99.90;;;;;;5064056;28;20244;-78
2023/03/25 05:35:10;;;;;;;0.00;0.00;;;10.00;99.90;;;;;;5062888;28;20046;-76
2023/03/25 05:37:36;;;;;;;0.10;0.10;;;10.10;99.90;;;;;;5063383;28;20028;-77
2023/03/25 05:40:04;;;;;;;0.00;0.00;;;10.10;99.90;;;;;;5063395;28;20081;-77
2023/03/25 05:42:31;;;;;;;0.10;0.10;;;10.90;99.90;;;;;;5062294;28;20032;-77
2023/03/25 05:44:57;;;;;;;0.10;0.10;;;10.20;99.90;;;;;;5062864;28;20060;-76
2023/03/25 05:47:24;;;;;;;0.10;0.10;;;10.30;99.90;;;;;;5064265;28;20024;-76
2023/03/25 05:49:51;;;;;;;0.10;0.10;;;10.30;99.90;;;;;;5065001;28;20170;-77
2023/03/25 05:52:18;;;;;;;3.80;3.60;;;10.30;99.90;;;;;;5063411;28;20304;-77
2023/03/25 05:54:49;;;;;;;0.20;0.20;;;10.20;99.90;;;;;;5062665;28;20081;-77
2023/03/25 05:57:15;;;;;;;0.00;0.00;;;10.20;99.90;;;;;;5064493;28;20078;-77
2023/03/25 05:59:41;;;;;;;0.03;0.03;;;10.20;99.90;;;;;;5063521;28;20024;-77
2023/03/25 06:02:12;;;;;;;0.03;0.03;;;10.20;99.90;;;;;;5063418;28;20094;-76
2023/03/25 06:04:40;;;;;;;0.10;0.10;;;10.20;99.90;;;;;;5078994;28;20028;-76
2023/03/25 06:07:25;;;;;;;0.00;0.00;;;10.30;99.90;;;;;;5063962;28;20016;-74
2023/03/25 06:09:53;;;;;;;0.30;0.30;;;10.30;99.90;;;;;;5020262;28;20065;-77
2023/03/25 06:12:22;;;;;;;0.10;0.10;;;10.30;99.90;;;;;;5019124;28;20536;-76
2023/03/25 06:14:52;;;;;;;0.00;0.00;;;8.60;99.90;;;;;;5022128;28;20060;-77
2023/03/25 06:17:21;;;;;;;0.25;0.25;;;10.40;99.90;;;;;;5020547;28;20451;-76
2023/03/25 06:19:48;;;;;;;0.00;0.00;;;10.30;99.90;;;;;;5020708;28;20093;-76
2023/03/25 06:22:14;;;;;;;0.10;0.10;;;10.40;99.90;;;;;;5021785;28;20097;-76
2023/03/25 06:24:41;;;;;;;2.67;2.58;;;10.40;99.90;;;;;;5022808;28;20041;-76
2023/03/25 06:27:18;;;;;;;0.30;0.30;;;10.40;99.90;;;;;;5023514;28;20396;-78
2023/03/25 06:29:45;;;;;;;0.00;0.00;;;10.50;99.90;;;;;;5032508;28;20049;-76
2023/03/25 06:32:12;;;;;;;0.00;0.00;;;10.50;99.90;;;;;;5031726;28;20036;-76
2023/03/25 06:34:41;;;;;;;1.08;1.08;;;10.60;99.90;;;;;;5033100;28;20037;-77
2023/03/25 06:37:08;;;;;;;0.00;0.00;;;9.00;99.90;;;;;;5032157;28;20025;-77
2023/03/25 06:39:36;;;;;;;0.00;0.00;;;10.80;99.90;;;;;;5030635;28;20405;-76
2023/03/25 06:42:04;;;;;;;0.10;0.10;;;10.90;99.90;;;;;;5074007;28;20032;-77
2023/03/25 06:44:30;;;;;;;0.10;0.10;;;11.00;99.90;;;;;;5074916;28;20422;-77
2023/03/25 06:46:56;;;;;;;0.00;0.00;;;11.00;99.90;;;;;;5072596;28;20516;-77
2023/03/25 06:49:22;;;;;;;0.10;0.10;;;11.10;99.90;;;;;;5072342;28;20288;-78
2023/03/25 06:51:48;;;;;;;0.00;0.00;;;11.20;99.90;;;;;;5069992;28;20370;-77
2023/03/25 06:54:14;;;;;;;0.10;0.10;;;11.30;99.90;;;;;;5066529;28;20060;-77
2023/03/25 06:56:40;;;;;;;0.05;0.05;;;9.40;99.90;;;;;;5068183;28;20059;-77
2023/03/25 06:59:06;;;;;;;0.10;0.10;;;11.30;99.90;;;;;;5069034;28;20305;-76
2023/03/25 07:01:32;;;;;;;0.10;0.10;;;11.40;99.90;;;;;;5068647;28;20024;-77
2023/03/25 07:03:58;;;;;;;0.10;0.10;;;11.40;99.90;;;;;;5067197;28;20016;-77
2023/03/25 07:06:23;;;;;;;0.10;0.10;;;11.50;99.90;;;;;;5067581;28;20043;-77
2023/03/25 07:08:50;;;;;;;0.10;0.10;;;11.40;99.90;;;;;;5067129;28;20029;-78
2023/03/25 07:11:23;;;;;;;0.10;0.10;;;11.30;99.90;;;;;;5076559;28;20016;-77
2023/03/25 07:13:52;;;;;;;4.97;4.47;;;11.30;99.90;;;;;;5073014;28;20076;-77
2023/03/25 07:16:19;;;;;;;0.10;0.10;;;11.40;99.90;;;;;;5066379;28;20020;-77
2023/03/25 07:18:49;;;;;;;0.03;0.03;;;11.50;99.90;;;;;;5077538;28;20244;-77
2023/03/25 07:21:19;;;;;;;0.00;0.00;;;11.60;99.90;;;;;;5079544;28;20020;-78
2023/03/25 07:23:45;;;;;;;0.10;0.10;;;11.70;99.90;;;;;;5074532;28;20024;-77
2023/03/25 07:26:12;;;;;;;0.00;0.00;;;11.90;99.90;;;;;;5071735;28;20464;-77
2023/03/25 07:28:39;;;;;;;0.10;0.10;;;;;;;;;;5067177;28;20024;-79
2023/03/25 07:31:07;;;;;;;0.10;0.10;;;12.00;99.90;;;;;;5066120;28;20021;-78
2023/03/25 07:33:33;;;;;;;1.58;1.55;;;14.90;99.90;;;;;;5065863;28;20021;-77
2023/03/25 07:35:58;;;;;;;0.10;0.10;;;12.20;99.90;;;;;;5066378;28;20384;-80
2023/03/25 07:38:24;;;;;;;0.00;0.00;;;11.90;99.90;;;;;;5065665;28;20248;-83
2023/03/25 07:40:50;;;;;;;0.00;0.00;;;14.40;99.90;;;;;;5065675;28;20043;-77
2023/03/25 07:43:16;;;;;;;0.17;0.17;;;11.90;99.90;;;;;;5062656;28;20043;-79
2023/03/25 07:45:41;;;;;;;0.10;0.10;;;12.30;99.90;;;;;;5061427;28;20044;-77
2023/03/25 07:48:13;;;;;;;0.20;0.20;;;12.40;99.90;;;;;;5060639;28;20009;-78
2023/03/25 07:50:39;;;;;;;28.50;7.03;;;12.40;99.90;;;;;;5059679;28;20025;-77
2023/03/25 07:53:05;;;;;;;0.10;0.10;;;12.40;99.90;;;;;;5060553;28;20031;-85
2023/03/25 07:55:31;;;;;;;0.03;0.03;;;12.50;99.90;;;;;;5060151;28;20031;-77
2023/03/25 07:57:59;;;;;;;0.43;0.43;;;12.60;99.90;;;;;;5059955;28;20092;-77
2023/03/25 08:00:26;;;;;;;0.10;0.10;;;12.60;99.90;;;;;;5059558;28;20552;-77
2023/03/25 08:02:51;;;;;;;0.05;0.05;;;12.70;99.90;;;;;;5059246;28;20510;-77
2023/03/25 08:05:20;;;;;;;0.10;0.10;;;12.80;99.90;;;;;;5059430;28;20348;-77
2023/03/25 08:07:49;;;;;;;0.10;0.10;;;13.00;99.90;;;;;;5059262;28;20023;-76
2023/03/25 08:10:16;;;;;;;0.40;0.40;;;13.10;99.90;;;;;;5058817;28;20025;-77
2023/03/25 08:12:43;;;;;;;0.20;0.20;;;13.20;99.90;;;;;;5059515;28;20044;-79
2023/03/25 08:15:13;;;;;;;0.10;0.10;;;13.30;99.90;;;;;;5059460;28;20320;-77
2023/03/25 08:17:39;;;;;;;0.10;0.10;;;13.50;99.90;;;;;;5057725;28;20025;-84
2023/03/25 08:20:06;;;;;;;0.20;0.20;;;13.70;99.90;;;;;;5059384;28;20024;-78
2023/03/25 08:22:32;;;;;;;2.92;2.78;;;13.90;99.90;;;;;;5059242;28;20029;-78
2023/03/25 08:24:58;;;;;;;0.10;0.10;;;15.40;99.90;;;;;;5059662;28;20473;-78
2023/03/25 08:27:25;;;;;;;0.10;0.10;;;14.60;99.90;;;;;;5059279;28;20081;-78
2023/03/25 08:29:56;;;;;;;0.10;0.10;;;15.00;99.90;;;;;;5058932;28;20154;-77
2023/03/25 08:32:23;;;;;;;0.25;0.25;;;15.30;96.10;;;;;;5057855;28;20032;-77
2023/03/25 08:34:49;;;;;;;0.10;0.10;;;15.80;94.70;;;;;;5059302;28;20013;-77
2023/03/25 08:37:15;;;;;;;0.15;0.15;;;16.00;92.40;;;;;;5059210;28;20047;-77
2023/03/25 08:39:43;;;;;;;0.10;0.10;;;15.90;87.80;;;;;;5059265;28;20059;-78
2023/03/25 08:42:11;;;;;;;0.45;0.45;;;16.20;88.00;;;;;;5059504;28;20155;-77
2023/03/25 08:44:38;;;;;;;0.10;0.10;;;16.10;85.20;;;;;;5058134;28;20017;-75
2023/03/25 08:47:04;;;;;;;0.20;0.20;;;16.10;82.60;;;;;;5074571;28;20415;-79
2023/03/25 08:49:30;;;;;;;0.10;0.10;;;16.20;81.90;;;;;;5058652;28;20434;-76
2023/03/25 08:51:57;;;;;;;11.13;10.52;;;16.30;80.60;;;;;;5058086;28;20399;-75
2023/03/25 08:54:27;;;;;;;0.73;0.73;;;16.50;81.40;;;;;;5059491;28;20028;-76
2023/03/25 08:56:54;;;;;;;0.10;0.10;;;16.40;81.90;;;;;;5058643;28;20573;-78
2023/03/25 08:59:19;;;;;;;1.42;1.33;;;16.70;81.90;;;;;;5058654;28;20153;-78
2023/03/25 09:01:45;;;;;;;0.22;0.22;;;17.00;80.30;;;;;;5058384;28;20029;-77
2023/03/25 09:04:11;;;;;;;2.35;2.25;;;17.20;79.40;;;;;;5058646;28;20052;-81
2023/03/25 09:06:38;;;;;;;0.10;0.10;;;17.30;77.50;;;;;;5058338;28;20019;-77
2023/03/25 09:09:05;;;;;;;0.85;0.85;;;17.50;76.60;;;;;;5059018;28;20078;-83
2023/03/25 09:11:34;;;;;;;0.85;0.85;;;17.70;74.80;;;;;;5059268;28;20475;-78
2023/03/25 09:14:03;;;;;;;0.10;0.10;;;18.00;74.60;;;;;;5058638;28;20092;-78
2023/03/25 09:16:33;;;;;;;0.85;0.85;;;18.40;74.10;;;;;;5059237;28;20078;-78
2023/03/25 09:18:59;;;;;;;0.20;0.20;;;18.10;73.10;;;;;;5059508;28;20017;-81
2023/03/25 09:21:25;;;;;;;0.10;0.10;;;18.30;73.10;;;;;;5060309;28;20036;-80
2023/03/25 09:23:51;;;;;;;2.28;2.10;;;18.30;73.00;;;;;;5059466;28;20028;-79
2023/03/25 09:26:17;;;;;;;0.10;0.10;;;18.40;72.30;;;;;;5058850;28;20020;-78
2023/03/25 09:28:43;;;;;;;0.10;0.10;;;18.40;67.90;;;;;;5058111;28;20067;-76
2023/03/25 09:31:09;;;;;;;2.25;2.05;;;17.90;67.90;;;;;;5059219;28;20040;-77
2023/03/25 09:33:35;;;;;;;0.73;0.73;;;16.10;64.60;;;;;;5056317;28;20032;-77
2023/03/25 09:36:02;;;;;;;0.20;0.20;;;19.10;66.90;;;;;;5057696;28;20399;-77
2023/03/25 09:38:29;;;;;;;0.10;0.10;;;19.20;66.20;;;;;;5056235;28;20025;-78
2023/03/25 09:40:54;;;;;;;0.10;0.10;;;19.30;63.30;;;;;;5058097;28;20012;-77
2023/03/25 09:43:36;;;;;;;0.10;0.10;;;19.50;63.10;;;;;;5056428;28;20545;-76
2023/03/25 09:46:03;;;;;;;0.25;0.25;;;19.50;62.40;;;;;;5057196;28;20327;-76
2023/03/25 09:48:41;;;;;;;0.10;0.10;;;19.60;61.30;;;;;;5072418;28;20526;-81
2023/03/25 09:51:20;;;;;;;0.10;0.10;;;19.50;61.30;;;;;;5057572;28;20123;-76
2023/03/25 09:54:15;;;;;;;0.10;0.10;;;19.40;61.60;;;;;;5057543;28;20523;-76
2023/03/25 09:56:43;;;;;;;0.10;0.10;;;19.60;61.90;;;;;;5057473;28;20297;-76
2023/03/25 09:59:22;;;;;;;0.10;0.10;;;18.70;64.30;;;;;;5073028;28;20035;-76
2023/03/25 10:02:25;;;;;;;0.10;0.10;;;19.00;65.60;;;;;;5056770;28;20103;-77
2023/03/25 10:04:51;;;;;;;3.17;3.05;;;19.20;64.50;;;;;;5073618;28;20037;-76
2023/03/25 10:07:41;;;;;;;0.10;0.10;;;19.00;67.10;;;;;;5058956;28;20085;-80
2023/03/25 10:10:56;;;;;;;0.10;0.10;;;18.90;64.10;;;;;;5058250;28;20055;-78
2023/03/25 10:13:26;;;;;;;;;;;19.00;62.20;;;;;;4995100;28;20030;-77
2023/03/25 10:16:12;;;;;;;0.10;0.10;;;19.20;63.00;;;;;;4978134;28;19972;-76
2023/03/25 10:19:08;;;;;;;0.10;0.10;;;19.50;62.00;;;;;;4994297;28;20084;-76
2023/03/25 10:21:49;;;;;;;0.10;0.10;;;19.90;60.50;;;;;;4994855;28;20235;-76
2023/03/25 10:24:19;;;;;;;0.10;0.10;;;20.00;61.10;;;;;;4978116;28;20026;-76
2023/03/25 10:26:58;;;;;;;0.10;0.10;;;20.20;62.20;;;;;;4995483;28;20270;-76
2023/03/25 10:29:49;;;;;;;0.10;0.10;;;20.50;60.20;;;;;;4979312;28;20084;-76
2023/03/25 10:32:19;;;;;;;0.10;0.10;;;20.50;59.60;;;;;;4919924;29;20042;-76
2023/03/25 10:34:56;;;;;;;0.05;0.05;;;20.80;57.60;;;;;;4920559;29;20573;-76
2023/03/25 10:37:32;;;;;;;0.43;0.43;;;20.80;58.80;;;;;;4936074;28;20118;-75
2023/03/25 10:40:29;;;;;;;0.77;0.77;;;19.10;57.20;;;;;;4920101;29;20383;-77
2023/03/25 10:43:19;;;;;;;0.10;0.10;;;21.00;58.00;;;;;;4936115;28;20339;-76
2023/03/25 10:45:47;;;;;;;0.10;0.10;;;21.00;57.10;;;;;;4935880;28;20411;-77
2023/03/25 10:48:21;;;;;;;0.70;0.68;;;20.90;57.30;;;;;;4956797;28;20056;-78
2023/03/25 10:50:49;;;;;;;0.35;0.35;;;20.90;57.20;;;;;;4997067;28;20247;-75
2023/03/25 10:53:26;;;;;;;0.10;0.10;;;21.00;57.50;;;;;;5014197;28;20379;-77
2023/03/25 10:56:04;;;;;;;0.32;0.32;;;21.30;57.20;;;;;;5013944;28;20604;-79
2023/03/25 10:58:36;;;;;;;0.20;0.20;;;21.20;57.30;;;;;;4997467;28;20030;-75
2023/03/25 11:01:11;;;;;;;0.10;0.10;;;20.90;56.60;;;;;;5013882;28;20025;-80
2023/03/25 11:03:39;;;;;;;0.00;0.00;;;20.80;57.20;;;;;;4997070;28;20037;-77
2023/03/25 11:06:05;;;;;;;0.10;0.10;;;20.90;57.40;;;;;;4996861;28;20120;-77
2023/03/25 11:08:32;;;;;;;0.10;0.10;;;;;;;;;;5021543;28;20736;-78
2023/03/25 11:11:04;;;;;;;0.00;0.00;;;20.90;57.00;;;;;;5056344;28;20021;-77
2023/03/25 11:13:30;;;;;;;0.20;0.20;;;20.90;58.40;;;;;;5058131;28;20027;-77
2023/03/25 11:16:02;;;;;;;0.10;0.10;;;20.90;57.60;;;;;;5060448;28;20017;-78
2023/03/25 11:18:36;;;;;;;0.10;0.10;;;21.00;57.70;;;;;;5059956;28;20237;-78
2023/03/25 11:21:08;;;;;;;0.10;0.10;;;21.00;58.30;;;;;;5060097;28;20020;-77
2023/03/25 11:23:36;;;;;;;0.57;0.57;;;21.10;57.70;;;;;;5060476;28;20094;-77
2023/03/25 11:26:12;;;;;;;0.00;0.00;;;21.30;58.20;;;;;;5060198;28;20036;-77
2023/03/25 11:28:44;;;;;;;0.05;0.05;;;21.50;58.00;;;;;;5058639;28;20592;-76
2023/03/25 11:31:15;;;;;;;0.10;0.10;;;21.60;57.70;;;;;;5058136;28;20048;-76
2023/03/25 11:33:43;;;;;;;0.10;0.10;;;21.10;57.90;;;;;;5059604;28;20329;-76
2023/03/25 11:36:21;;;;;;;0.03;0.03;;;22.00;57.70;;;;;;5059438;28;20024;-76
2023/03/25 11:38:55;;;;;;;0.15;0.15;;;21.00;57.70;;;;;;5059568;28;20466;-76
2023/03/25 11:41:21;;;;;;;0.32;0.30;;;21.20;58.70;;;;;;5059622;28;20028;-76
2023/03/25 11:43:48;;;;;;;0.10;0.10;;;22.60;60.00;;;;;;5059822;28;20550;-77
2023/03/25 11:46:17;;;;;;;0.25;0.25;;;21.00;59.00;;;;;;5059381;28;20044;-76
2023/03/25 11:48:45;;;;;;;0.10;0.10;;;20.90;59.50;;;;;;5058244;28;20035;-77
2023/03/25 11:51:27;;;;;;;2.53;2.38;;;20.90;59.70;;;;;;5059526;28;20024;-76
2023/03/25 11:54:04;;;;;;;0.73;0.73;;;20.70;59.50;;;;;;5058383;28;20017;-76
2023/03/25 11:56:40;;;;;;;0.10;0.10;;;20.50;60.20;;;;;;5057957;28;20157;-76
2023/03/25 11:59:32;;;;;;;0.20;0.20;;;20.60;59.70;;;;;;5058153;28;20115;-76
2023/03/25 12:02:16;;;;;;;0.10;0.10;;;20.40;60.40;;;;;;5073889;28;20032;-76
2023/03/25 12:05:15;;;;;;;0.10;0.10;;;18.70;61.30;;;;;;5057991;28;20260;-75
2023/03/25 12:07:46;;;;;;;0.85;0.85;;;20.10;62.40;;;;;;4996760;28;20033;-77
2023/03/25 12:10:38;;;;;;;0.30;0.30;;;20.60;61.90;;;;;;4996494;28;20046;-77
2023/03/25 12:13:17;;;;;;;0.10;0.10;;;20.50;62.40;;;;;;4980343;28;20026;-78
2023/03/25 12:15:49;;;;;;;0.20;0.20;;;20.20;63.60;;;;;;4996583;28;20094;-77
2023/03/25 12:18:52;;;;;;;0.10;0.10;;;19.70;62.40;;;;;;4980298;28;20603;-80
2023/03/25 12:21:29;;;;;;;0.10;0.10;;;19.70;61.80;;;;;;4980311;28;20026;-76
2023/03/25 12:24:00;;;;;;;0.10;0.10;;;20.10;61.40;;;;;;4996309;28;20093;-81
2023/03/25 12:26:56;;;;;;;0.10;0.10;;;20.20;61.00;;;;;;4995488;28;20057;-75
2023/03/25 12:29:46;;;;;;;0.08;0.08;;;18.90;59.90;;;;;;4996327;28;20284;-78
2023/03/25 12:32:21;;;;;;;0.10;0.10;;;20.20;60.90;;;;;;4996231;28;20635;-76
2023/03/25 12:34:50;;;;;;;0.10;0.10;;;20.40;60.60;;;;;;4996406;28;20045;-77
2023/03/25 12:37:26;;;;;;;0.10;0.10;;;20.40;59.60;;;;;;4979261;28;20500;-75
2023/03/25 12:40:34;;;;;;;0.10;0.10;;;20.30;59.00;;;;;;4996194;28;20287;-76
2023/03/25 12:43:11;;;;;;;0.10;0.10;;;20.30;58.20;;;;;;5018903;28;20260;-75
2023/03/25 12:46:08;;;;;;;0.40;0.30;;;20.60;58.00;;;;;;5058543;28;20181;-76
2023/03/25 12:48:57;;;;;;;0.10;0.10;;;20.70;58.30;;;;;;5058372;28;20060;-75
2023/03/25 12:51:53;;;;;;;6.13;2.40;;;21.20;56.40;;;;;;5058733;28;20020;-76
2023/03/25 12:54:49;;;;;;;3.95;3.75;;;21.20;55.80;;;;;;5058915;28;20494;-76
2023/03/25 12:57:36;;;;;;;0.10;0.10;;;20.00;55.80;;;;;;5058586;28;20025;-77
2023/03/25 13:00:17;;;;;;;0.43;0.43;;;20.70;57.20;;;;;;5058683;28;20078;-80
2023/03/25 13:03:11;;;;;;;0.10;0.10;;;20.60;57.40;;;;;;5058182;28;20098;-79
2023/03/25 13:06:29;;;;;;;0.40;0.40;;;20.70;57.30;;;;;;5058257;28;20119;-76
2023/03/25 13:09:07;;;;;;;0.10;0.10;;;20.80;57.00;;;;;;4995476;28;20432;-76
2023/03/25 13:11:46;;;;;;;0.10;0.10;;;21.20;56.80;;;;;;4995177;28;20030;-77
2023/03/25 13:14:35;;;;;;;0.10;0.10;;;21.30;57.20;;;;;;4979057;28;20460;-76
2023/03/25 13:17:07;;;;;;;0.00;0.00;;;21.30;56.40;;;;;;4995509;28;20030;-77
2023/03/25 13:19:41;;;;;;;3.03;2.10;;;21.50;56.00;;;;;;4995424;28;20030;-77
2023/03/25 13:22:15;;;;;;;;;;;21.90;56.10;;;;;;4979632;28;20568;-80